createdAt,value
2018-05-29T00:00:35.311Z,29.6
2018-05-29T00:01:35.989Z,27.6
2018-05-29T00:02:36.671Z,27.7
2018-05-29T00:03:37.351Z,29.1
2018-05-29T00:04:38.017Z,29.1
2018-05-29T00:05:38.705Z,28.3
2018-05-29T00:06:39.376Z,29.6
2018-05-29T00:07:40.364Z,27.3
2018-05-29T00:08:41.049Z,29.9
2018-05-29T00:09:41.760Z,30.4
2018-05-29T00:10:42.430Z,29.8
2018-05-29T00:11:43.112Z,31.6
2018-05-29T00:12:44.103Z,31.2
2018-05-29T00:13:44.774Z,30.9
2018-05-29T00:14:45.461Z,29.7
2018-05-29T00:15:46.138Z,30.8
2018-05-29T00:16:46.828Z,31.0
2018-05-29T00:17:47.919Z,31.1
2018-05-29T00:18:48.610Z,32.4
2018-05-29T00:19:49.293Z,32.5
2018-05-29T00:20:49.966Z,31.0
2018-05-29T00:21:50.643Z,31.2
2018-05-29T00:22:51.383Z,31.1
2018-05-29T00:23:52.059Z,31.6
2018-05-29T00:24:52.733Z,30.8
2018-05-29T00:25:53.426Z,31.7
2018-05-29T00:26:54.584Z,30.8
2018-05-29T00:27:55.343Z,30.9
2018-05-29T00:28:56.285Z,32.4
2018-05-29T00:29:56.973Z,33.7
2018-05-29T00:30:57.899Z,32.4
2018-05-29T00:31:58.625Z,32.9
2018-05-29T00:32:59.345Z,32.5
2018-05-29T00:34:00.511Z,33.0
2018-05-29T00:35:01.211Z,34.9
2018-05-29T00:36:01.943Z,34.3
2018-05-29T00:37:03.036Z,33.6
2018-05-29T00:38:04.083Z,35.3
2018-05-29T00:39:04.800Z,35.4
2018-05-29T00:40:06.080Z,34.6
2018-05-29T00:41:06.792Z,35.6
2018-05-29T00:42:07.527Z,33.4
2018-05-29T00:43:08.302Z,34.7
2018-05-29T00:44:09.059Z,35.4
2018-05-29T00:45:10.213Z,37.2
2018-05-29T00:46:10.929Z,38.8
2018-05-29T00:47:12.025Z,36.9
2018-05-29T00:48:12.798Z,38.4
2018-05-29T00:49:13.484Z,36.2
2018-05-29T00:50:14.270Z,36.4
2018-05-29T00:51:15.239Z,36.0
2018-05-29T00:52:16.115Z,37.9
2018-05-29T00:53:16.816Z,37.9
2018-05-29T00:54:17.582Z,39.4
2018-05-29T00:55:18.278Z,38.6
2018-05-29T00:56:18.967Z,41.7
2018-05-29T00:57:20.140Z,40.0
2018-05-29T00:58:21.079Z,39.9
2018-05-29T00:59:21.753Z,39.1
2018-05-29T01:00:22.434Z,36.6
2018-05-29T01:01:23.111Z,38.3
2018-05-29T01:02:23.796Z,38.1
2018-05-29T01:03:24.486Z,36.2
2018-05-29T01:04:25.156Z,36.4
2018-05-29T01:05:25.827Z,36.7
2018-05-29T01:06:26.763Z,37.0
2018-05-29T01:07:27.437Z,36.1
2018-05-29T01:08:28.123Z,35.5
2018-05-29T01:09:28.798Z,34.9
2018-05-29T01:10:29.493Z,39.5
2018-05-29T01:11:30.284Z,37.1
2018-05-29T01:12:30.954Z,34.6
2018-05-29T01:13:31.638Z,36.4
2018-05-29T01:14:32.323Z,36.4
2018-05-29T01:15:32.997Z,37.5
2018-05-29T01:16:33.770Z,37.4
2018-05-29T01:17:34.452Z,37.4
2018-05-29T01:18:35.130Z,37.4
2018-05-29T01:19:35.811Z,36.3
2018-05-29T01:20:36.491Z,36.0
2018-05-29T01:21:37.171Z,35.4
2018-05-29T01:22:37.851Z,36.2
2018-05-29T01:23:38.522Z,37.2
2018-05-29T01:24:39.209Z,36.4
2018-05-29T01:25:39.887Z,37.3
2018-05-29T01:26:40.567Z,36.7
2018-05-29T01:27:41.539Z,37.3
2018-05-29T01:28:42.227Z,37.2
2018-05-29T01:29:42.900Z,37.7
2018-05-29T01:30:43.589Z,36.5
2018-05-29T01:31:44.264Z,38.0
2018-05-29T01:32:45.346Z,36.3
2018-05-29T01:33:46.023Z,37.9
2018-05-29T01:34:46.694Z,34.7
2018-05-29T01:35:47.380Z,37.3
2018-05-29T01:36:48.061Z,35.9
2018-05-29T01:37:48.742Z,35.2
2018-05-29T01:38:49.407Z,36.8
2018-05-29T01:39:50.205Z,37.1
2018-05-29T01:40:50.878Z,35.7
2018-05-29T01:41:51.806Z,36.3
2018-05-29T01:42:52.495Z,33.5
2018-05-29T01:43:53.166Z,35.6
2018-05-29T01:44:53.894Z,36.2
2018-05-29T01:45:54.584Z,37.6
2018-05-29T01:46:55.254Z,33.7
2018-05-29T01:47:55.933Z,37.5
2018-05-29T01:48:56.607Z,34.9
2018-05-29T01:49:57.288Z,35.5
2018-05-29T01:50:57.956Z,35.8
2018-05-29T01:51:58.636Z,35.2
2018-05-29T01:52:59.312Z,35.2
2018-05-29T01:54:00.004Z,36.2
2018-05-29T01:55:00.676Z,35.2
2018-05-29T01:56:01.346Z,33.2
2018-05-29T01:57:02.040Z,35.7
2018-05-29T01:58:02.718Z,35.8
2018-05-29T01:59:03.402Z,35.3
2018-05-29T02:00:04.093Z,35.9
2018-05-29T02:01:04.764Z,37.2
2018-05-29T02:02:05.442Z,35.3
2018-05-29T02:03:06.117Z,36.2
2018-05-29T02:04:06.818Z,38.2
2018-05-29T02:05:07.497Z,34.2
2018-05-29T02:06:08.188Z,35.7
2018-05-29T02:07:08.913Z,34.7
2018-05-29T02:08:09.601Z,34.7
2018-05-29T02:09:10.278Z,35.3
2018-05-29T02:10:10.959Z,36.9
2018-05-29T02:11:11.890Z,37.2
2018-05-29T02:12:12.629Z,35.3
2018-05-29T02:13:13.311Z,36.3
2018-05-29T02:14:14.008Z,36.0
2018-05-29T02:15:14.672Z,36.2
2018-05-29T02:16:15.355Z,35.6
2018-05-29T02:17:16.078Z,35.9
2018-05-29T02:18:16.761Z,36.7
2018-05-29T02:19:17.440Z,36.3
2018-05-29T02:20:18.116Z,37.5
2018-05-29T02:21:18.796Z,35.8
2018-05-29T02:22:19.602Z,36.5
2018-05-29T02:23:20.273Z,39.3
2018-05-29T02:24:20.955Z,38.4
2018-05-29T02:25:21.641Z,38.1
2018-05-29T02:26:22.321Z,38.6
2018-05-29T02:27:23.450Z,45.8
2018-05-29T02:28:24.131Z,37.3
2018-05-29T02:29:24.808Z,36.6
2018-05-29T02:30:25.498Z,36.6
2018-05-29T02:31:26.194Z,37.1
2018-05-29T02:32:26.912Z,38.3
2018-05-29T02:33:27.594Z,36.7
2018-05-29T02:34:28.268Z,37.0
2018-05-29T02:35:28.951Z,35.9
2018-05-29T02:36:29.638Z,36.7
2018-05-29T02:37:30.318Z,36.3
2018-05-29T02:38:31.094Z,36.3
2018-05-29T02:39:31.769Z,38.9
2018-05-29T02:40:32.449Z,38.7
2018-05-29T02:41:33.134Z,38.4
2018-05-29T02:42:33.820Z,37.0
2018-05-29T02:43:34.603Z,38.4
2018-05-29T02:44:35.283Z,37.4
2018-05-29T02:45:35.959Z,37.9
2018-05-29T02:46:36.644Z,37.9
2018-05-29T02:47:37.327Z,37.1
2018-05-29T02:48:38.366Z,38.4
2018-05-29T02:49:39.047Z,36.4
2018-05-29T02:50:39.717Z,38.7
2018-05-29T02:51:40.399Z,37.7
2018-05-29T02:52:41.078Z,36.7
2018-05-29T02:53:42.156Z,37.7
2018-05-29T02:54:42.843Z,37.5
2018-05-29T02:55:43.532Z,37.2
2018-05-29T02:56:44.225Z,38.4
2018-05-29T02:57:44.898Z,38.5
2018-05-29T02:58:45.689Z,36.8
2018-05-29T02:59:46.370Z,38.1
2018-05-29T03:00:47.052Z,37.3
2018-05-29T03:01:47.739Z,38.0
2018-05-29T03:02:48.407Z,39.2
2018-05-29T03:03:49.087Z,37.2
2018-05-29T03:04:49.765Z,36.6
2018-05-29T03:05:50.453Z,37.9
2018-05-29T03:06:51.143Z,38.3
2018-05-29T03:07:51.827Z,37.6
2018-05-29T03:08:52.925Z,36.8
2018-05-29T03:09:53.612Z,37.2
2018-05-29T03:10:54.301Z,39.3
2018-05-29T03:11:54.974Z,38.6
2018-05-29T03:12:55.666Z,39.5
2018-05-29T03:13:56.449Z,37.5
2018-05-29T03:14:57.156Z,38.3
2018-05-29T03:15:57.827Z,37.2
2018-05-29T03:16:58.512Z,40.6
2018-05-29T03:17:59.188Z,42.0
2018-05-29T03:18:59.869Z,40.1
2018-05-29T03:20:00.558Z,44.2
2018-05-29T03:21:01.307Z,42.2
2018-05-29T03:22:01.945Z,40.5
2018-05-29T03:23:02.628Z,40.9
2018-05-29T03:24:03.314Z,39.4
2018-05-29T03:25:04.003Z,39.2
2018-05-29T03:26:04.682Z,40.1
2018-05-29T03:27:05.370Z,40.2
2018-05-29T03:28:06.048Z,43.7
2018-05-29T03:29:06.743Z,38.0
2018-05-29T03:30:07.423Z,40.0
2018-05-29T03:31:08.403Z,39.0
2018-05-29T03:32:09.098Z,40.0
2018-05-29T03:33:09.780Z,39.1
2018-05-29T03:34:10.475Z,44.4
2018-05-29T03:35:11.146Z,45.0
2018-05-29T03:36:12.238Z,38.3
2018-05-29T03:37:13.169Z,40.2
2018-05-29T03:38:13.852Z,40.9
2018-05-29T03:39:14.544Z,40.2
2018-05-29T03:40:15.225Z,39.0
2018-05-29T03:41:15.908Z,38.7
2018-05-29T03:42:16.601Z,38.5
2018-05-29T03:43:17.282Z,40.9
2018-05-29T03:44:17.970Z,39.8
2018-05-29T03:45:18.659Z,39.2
2018-05-29T03:46:19.448Z,39.4
2018-05-29T03:47:20.134Z,40.7
2018-05-29T03:48:20.823Z,39.6
2018-05-29T03:49:21.517Z,39.3
2018-05-29T03:50:22.200Z,37.9
2018-05-29T03:51:23.233Z,39.1
2018-05-29T03:52:23.910Z,39.6
2018-05-29T03:53:24.606Z,38.0
2018-05-29T03:54:25.322Z,39.3
2018-05-29T03:55:25.965Z,38.4
2018-05-29T03:56:26.655Z,39.0
2018-05-29T03:57:27.443Z,39.2
2018-05-29T03:58:28.124Z,41.0
2018-05-29T03:59:28.814Z,36.7
2018-05-29T04:00:29.497Z,38.5
2018-05-29T04:01:30.191Z,37.9
2018-05-29T04:02:30.877Z,36.6
2018-05-29T04:03:31.561Z,37.3
2018-05-29T04:04:32.507Z,37.8
2018-05-29T04:05:33.198Z,37.5
2018-05-29T04:06:33.877Z,37.9
2018-05-29T04:07:35.019Z,37.9
2018-05-29T04:08:35.698Z,39.2
2018-05-29T04:09:36.404Z,38.1
2018-05-29T04:10:37.074Z,37.5
2018-05-29T04:11:37.748Z,38.0
2018-05-29T04:12:38.488Z,39.1
2018-05-29T04:13:39.168Z,37.7
2018-05-29T04:14:40.123Z,39.5
2018-05-29T04:15:40.799Z,38.8
2018-05-29T04:16:41.735Z,38.6
2018-05-29T04:17:42.780Z,39.7
2018-05-29T04:18:43.535Z,39.0
2018-05-29T04:19:44.217Z,38.8
2018-05-29T04:20:44.896Z,39.6
2018-05-29T04:21:45.587Z,38.6
2018-05-29T04:22:46.271Z,36.5
2018-05-29T04:23:46.971Z,37.4
2018-05-29T04:24:47.650Z,37.7
2018-05-29T04:25:48.681Z,37.7
2018-05-29T04:26:49.612Z,36.8
2018-05-29T04:27:50.286Z,38.3
2018-05-29T04:28:51.213Z,35.8
2018-05-29T04:29:51.913Z,36.3
2018-05-29T04:30:53.010Z,38.8
2018-05-29T04:31:53.688Z,36.0
2018-05-29T04:32:54.372Z,36.0
2018-05-29T04:33:55.069Z,36.0
2018-05-29T04:34:55.752Z,36.4
2018-05-29T04:35:56.433Z,36.9
2018-05-29T04:36:57.147Z,35.1
2018-05-29T04:37:57.833Z,36.4
2018-05-29T04:38:58.515Z,37.3
2018-05-29T04:39:59.213Z,39.6
2018-05-29T04:40:59.885Z,34.5
2018-05-29T04:42:00.818Z,34.3
2018-05-29T04:43:01.500Z,34.2
2018-05-29T04:44:02.194Z,34.0
2018-05-29T04:45:03.320Z,33.2
2018-05-29T04:46:04.005Z,33.9
2018-05-29T04:47:04.703Z,34.2
2018-05-29T04:48:05.370Z,31.7
2018-05-29T04:49:06.061Z,32.2
2018-05-29T04:50:06.754Z,31.8
2018-05-29T04:51:07.437Z,32.4
2018-05-29T04:52:08.120Z,31.4
2018-05-29T04:53:08.802Z,29.9
2018-05-29T04:54:09.486Z,28.3
2018-05-29T04:55:10.170Z,29.9
2018-05-29T04:56:10.858Z,31.4
2018-05-29T04:57:11.547Z,27.2
2018-05-29T04:58:12.237Z,27.6
2018-05-29T04:59:12.916Z,28.5
2018-05-29T05:00:13.605Z,28.1
2018-05-29T05:01:14.313Z,25.2
2018-05-29T05:02:15.281Z,26.6
2018-05-29T05:03:15.967Z,28.8
2018-05-29T05:04:17.009Z,26.9
2018-05-29T05:05:17.689Z,26.2
2018-05-29T05:06:18.363Z,26.8
2018-05-29T05:07:19.559Z,25.5
2018-05-29T05:08:20.251Z,23.6
2018-05-29T05:09:21.278Z,23.2
2018-05-29T05:10:21.972Z,21.9
2018-05-29T05:11:22.642Z,21.2
2018-05-29T05:12:23.332Z,22.8
2018-05-29T05:13:24.019Z,20.3
2018-05-29T05:14:24.709Z,19.3
2018-05-29T05:15:25.389Z,18.9
2018-05-29T05:16:26.075Z,18.2
2018-05-29T05:17:26.764Z,19.9
2018-05-29T05:18:27.440Z,18.4
2018-05-29T05:19:28.477Z,23.3
2018-05-29T05:20:29.162Z,19.4
2018-05-29T05:21:29.847Z,19.1
2018-05-29T05:22:30.540Z,19.3
2018-05-29T05:23:31.290Z,21.6
2018-05-29T05:24:32.282Z,19.2
2018-05-29T05:25:32.968Z,19.8
2018-05-29T05:26:33.649Z,21.1
2018-05-29T05:27:34.343Z,20.7
2018-05-29T05:28:35.031Z,21.2
2018-05-29T05:29:35.970Z,23.3
2018-05-29T05:30:36.642Z,22.5
2018-05-29T05:31:37.734Z,20.4
2018-05-29T05:32:38.461Z,20.6
2018-05-29T05:33:39.102Z,19.9
2018-05-29T05:34:39.805Z,19.8
2018-05-29T05:35:40.496Z,21.4
2018-05-29T05:36:41.265Z,21.3
2018-05-29T05:37:41.951Z,21.7
2018-05-29T05:38:42.638Z,22.3
2018-05-29T05:39:43.319Z,22.7
2018-05-29T05:40:44.024Z,22.2
2018-05-29T05:41:44.795Z,21.1
2018-05-29T05:42:45.479Z,22.2
2018-05-29T05:43:46.230Z,22.0
2018-05-29T05:44:47.168Z,28.4
2018-05-29T05:45:47.847Z,34.2
2018-05-29T05:46:48.588Z,23.2
2018-05-29T05:47:49.536Z,20.3
2018-05-29T05:48:50.221Z,22.8
2018-05-29T05:49:51.438Z,46.5
2018-05-29T05:50:52.117Z,33.7
2018-05-29T05:51:52.904Z,22.2
2018-05-29T05:52:53.602Z,24.7
2018-05-29T05:53:54.279Z,21.9
2018-05-29T05:54:54.973Z,23.4
2018-05-29T05:55:55.674Z,24.1
2018-05-29T05:56:56.359Z,21.8
2018-05-29T05:57:57.037Z,22.4
2018-05-29T05:58:57.723Z,25.8
2018-05-29T05:59:59.024Z,21.6
2018-05-29T06:00:59.701Z,21.4
2018-05-29T06:02:00.449Z,20.9
2018-05-29T06:03:01.142Z,20.4
2018-05-29T06:04:01.857Z,32.3
2018-05-29T06:05:02.564Z,22.6
2018-05-29T06:06:03.266Z,21.2
2018-05-29T06:07:03.944Z,19.9
2018-05-29T06:08:05.306Z,23.1
2018-05-29T06:09:06.155Z,22.5
2018-05-29T06:10:06.845Z,21.6
2018-05-29T06:11:07.535Z,19.8
2018-05-29T06:12:08.222Z,20.6
2018-05-29T06:13:08.908Z,20.4
2018-05-29T06:14:09.618Z,19.4
2018-05-29T06:15:10.763Z,19.0
2018-05-29T06:16:11.448Z,25.7
2018-05-29T06:17:12.384Z,22.4
2018-05-29T06:18:13.329Z,18.7
2018-05-29T06:19:14.013Z,20.7
2018-05-29T06:20:14.702Z,20.2
2018-05-29T06:21:15.441Z,21.3
2018-05-29T06:22:16.135Z,20.9
2018-05-29T06:23:16.827Z,18.1
2018-05-29T06:24:17.526Z,19.8
2018-05-29T06:25:18.504Z,19.0
2018-05-29T06:26:19.190Z,18.9
2018-05-29T06:27:19.871Z,18.0
2018-05-29T06:28:20.815Z,19.8
2018-05-29T06:29:21.766Z,18.1
2018-05-29T06:30:22.752Z,27.8
2018-05-29T06:31:23.424Z,19.9
2018-05-29T06:32:24.108Z,17.3
2018-05-29T06:33:24.792Z,18.6
2018-05-29T06:34:25.520Z,19.0
2018-05-29T06:35:26.184Z,19.8
2018-05-29T06:36:26.893Z,24.7
2018-05-29T06:37:27.889Z,18.7
2018-05-29T06:38:28.602Z,18.9
2018-05-29T06:39:29.272Z,18.1
2018-05-29T06:40:29.955Z,18.5
2018-05-29T06:41:30.640Z,17.2
2018-05-29T06:42:31.322Z,18.0
2018-05-29T06:43:32.018Z,18.5
2018-05-29T06:44:32.707Z,16.9
2018-05-29T06:45:33.389Z,17.9
2018-05-29T06:46:34.092Z,17.4
2018-05-29T06:47:34.785Z,17.6
2018-05-29T06:48:35.575Z,15.8
2018-05-29T06:49:36.269Z,16.2
2018-05-29T06:50:36.958Z,16.4
2018-05-29T06:51:37.932Z,17.3
2018-05-29T06:52:38.673Z,18.1
2018-05-29T06:53:39.292Z,17.2
2018-05-29T06:54:39.974Z,15.9
2018-05-29T06:55:40.654Z,18.5
2018-05-29T06:56:41.338Z,18.2
2018-05-29T06:57:42.283Z,17.0
2018-05-29T06:58:42.963Z,19.8
2018-05-29T06:59:43.657Z,16.9
2018-05-29T07:00:44.346Z,15.2
2018-05-29T07:01:45.039Z,14.7
2018-05-29T07:02:45.717Z,15.6
2018-05-29T07:03:46.410Z,18.8
2018-05-29T07:04:47.100Z,18.4
2018-05-29T07:05:48.060Z,14.3
2018-05-29T07:06:48.743Z,14.5
2018-05-29T07:07:49.437Z,17.6
2018-05-29T07:08:50.123Z,15.8
2018-05-29T07:09:50.812Z,15.0
2018-05-29T07:10:51.505Z,15.0
2018-05-29T07:11:52.589Z,15.1
2018-05-29T07:12:53.282Z,14.5
2018-05-29T07:13:53.967Z,21.5
2018-05-29T07:14:54.657Z,15.0
2018-05-29T07:15:55.331Z,15.8
2018-05-29T07:16:56.030Z,16.1
2018-05-29T07:17:56.718Z,14.5
2018-05-29T07:18:57.399Z,17.9
2018-05-29T07:19:58.125Z,14.7
2018-05-29T07:20:58.864Z,13.3
2018-05-29T07:21:59.547Z,15.6
2018-05-29T07:23:00.227Z,13.7
2018-05-29T07:24:00.918Z,13.4
2018-05-29T07:25:01.691Z,14.4
2018-05-29T07:26:02.789Z,16.3
2018-05-29T07:27:03.464Z,15.9
2018-05-29T07:28:04.156Z,16.2
2018-05-29T07:29:05.107Z,13.7
2018-05-29T07:30:05.787Z,12.5
2018-05-29T07:31:06.479Z,18.9
2018-05-29T07:32:07.173Z,19.4
2018-05-29T07:33:08.255Z,12.6
2018-05-29T07:34:08.947Z,13.5
2018-05-29T07:35:09.628Z,15.6
2018-05-29T07:36:10.313Z,13.1
2018-05-29T07:37:10.997Z,13.2
2018-05-29T07:38:11.790Z,13.5
2018-05-29T07:39:12.487Z,16.1
2018-05-29T07:40:13.177Z,11.9
2018-05-29T07:41:13.871Z,12.4
2018-05-29T07:42:14.805Z,12.0
2018-05-29T07:43:15.548Z,11.5
2018-05-29T07:44:16.250Z,11.8
2018-05-29T07:45:16.970Z,13.5
2018-05-29T07:46:17.626Z,10.7
2018-05-29T07:47:18.322Z,12.6
2018-05-29T07:48:19.323Z,11.1
2018-05-29T07:49:20.004Z,10.8
2018-05-29T07:50:20.681Z,11.2
2018-05-29T07:51:21.371Z,10.7
2018-05-29T07:52:22.075Z,11.5
2018-05-29T07:53:22.828Z,11.1
2018-05-29T07:54:23.526Z,11.4
2018-05-29T07:55:24.236Z,11.0
2018-05-29T07:56:24.921Z,9.9
2018-05-29T07:57:25.639Z,11.2
2018-05-29T07:58:26.386Z,11.6
2018-05-29T07:59:27.086Z,14.2
2018-05-29T08:00:27.766Z,10.8
2018-05-29T08:01:28.456Z,10.4
2018-05-29T08:02:29.164Z,11.0
2018-05-29T08:03:29.897Z,15.2
2018-05-29T08:04:30.608Z,11.3
2018-05-29T08:05:31.306Z,11.5
2018-05-29T08:06:32.013Z,10.1
2018-05-29T08:07:32.708Z,10.1
2018-05-29T08:08:33.696Z,10.2
2018-05-29T08:09:34.381Z,9.7
2018-05-29T08:10:35.081Z,10.3
2018-05-29T08:11:35.765Z,10.3
2018-05-29T08:12:36.453Z,10.6
2018-05-29T08:13:37.511Z,10.7
2018-05-29T08:14:38.185Z,10.0
2018-05-29T08:15:38.874Z,10.6
2018-05-29T08:16:39.570Z,9.4
2018-05-29T08:17:40.258Z,10.1
2018-05-29T08:18:40.968Z,9.9
2018-05-29T08:19:41.673Z,13.2
2018-05-29T08:20:42.360Z,11.1
2018-05-29T08:21:43.318Z,11.3
2018-05-29T08:22:44.018Z,9.6
2018-05-29T08:23:44.719Z,9.3
2018-05-29T08:24:45.668Z,17.6
2018-05-29T08:25:46.464Z,8.5
2018-05-29T08:26:47.147Z,12.6
2018-05-29T08:27:47.837Z,9.2
2018-05-29T08:28:48.767Z,9.2
2018-05-29T08:29:49.457Z,8.9
2018-05-29T08:30:50.145Z,15.4
2018-05-29T08:31:50.836Z,9.1
2018-05-29T08:32:51.525Z,12.2
2018-05-29T08:33:52.216Z,9.7
2018-05-29T08:34:52.903Z,9.0
2018-05-29T08:35:53.860Z,9.7
2018-05-29T08:36:54.566Z,10.8
2018-05-29T08:37:55.360Z,12.8
2018-05-29T08:38:56.072Z,11.8
2018-05-29T08:39:56.748Z,15.2
2018-05-29T08:40:57.451Z,13.9
2018-05-29T08:41:58.144Z,9.9
2018-05-29T08:42:58.934Z,10.6
2018-05-29T08:44:00.140Z,10.5
2018-05-29T08:45:00.822Z,10.5
2018-05-29T08:46:01.812Z,9.1
2018-05-29T08:47:02.470Z,10.8
2018-05-29T08:48:03.556Z,8.9
2018-05-29T08:49:04.241Z,10.8
2018-05-29T08:50:05.194Z,8.6
2018-05-29T08:51:05.880Z,8.5
2018-05-29T08:52:06.570Z,8.2
2018-05-29T08:53:07.316Z,8.3
2018-05-29T08:54:07.969Z,8.8
2018-05-29T08:55:08.649Z,8.4
2018-05-29T08:56:09.605Z,7.7
2018-05-29T08:57:10.278Z,8.0
2018-05-29T08:58:10.984Z,9.0
2018-05-29T08:59:11.671Z,7.2
2018-05-29T09:00:12.463Z,7.7
2018-05-29T09:01:13.152Z,7.5
2018-05-29T09:02:13.839Z,7.5
2018-05-29T09:03:14.530Z,7.2
2018-05-29T09:04:15.242Z,8.0
2018-05-29T09:05:15.918Z,6.4
2018-05-29T09:06:16.614Z,7.1
2018-05-29T09:07:17.298Z,5.7
2018-05-29T09:08:17.995Z,6.2
2018-05-29T09:09:18.698Z,5.9
2018-05-29T09:10:19.385Z,5.7
2018-05-29T09:11:20.473Z,7.4
2018-05-29T09:12:21.164Z,5.3
2018-05-29T09:13:21.871Z,4.9
2018-05-29T09:14:22.557Z,5.2
2018-05-29T09:15:23.507Z,8.1
2018-05-29T09:16:24.448Z,5.8
2018-05-29T09:17:25.853Z,6.0
2018-05-29T09:18:26.538Z,5.2
2018-05-29T09:19:27.237Z,6.7
2018-05-29T09:20:27.939Z,5.0
2018-05-29T09:21:28.618Z,5.4
2018-05-29T09:22:29.971Z,5.0
2018-05-29T09:23:30.664Z,5.4
2018-05-29T09:24:31.353Z,5.6
2018-05-29T09:25:32.046Z,5.4
2018-05-29T09:26:32.745Z,8.3
2018-05-29T09:27:33.520Z,6.7
2018-05-29T09:28:34.212Z,5.9
2018-05-29T09:29:34.966Z,5.3
2018-05-29T09:30:35.605Z,5.7
2018-05-29T09:31:36.307Z,10.0
2018-05-29T09:32:37.004Z,8.5
2018-05-29T09:33:37.694Z,6.2
2018-05-29T09:34:38.379Z,5.3
2018-05-29T09:35:39.093Z,5.2
2018-05-29T09:36:39.790Z,7.2
2018-05-29T09:37:40.734Z,5.8
2018-05-29T09:38:41.414Z,6.9
2018-05-29T09:39:42.408Z,6.4
2018-05-29T09:40:43.107Z,6.9
2018-05-29T09:41:43.796Z,6.0
2018-05-29T09:42:44.510Z,5.9
2018-05-29T09:43:45.215Z,10.9
2018-05-29T09:44:45.917Z,7.1
2018-05-29T09:45:46.635Z,6.1
2018-05-29T09:46:47.406Z,6.9
2018-05-29T09:47:48.089Z,8.9
2018-05-29T09:48:48.777Z,6.5
2018-05-29T09:49:49.472Z,7.9
2018-05-29T09:50:50.157Z,6.7
2018-05-29T09:51:50.859Z,10.7
2018-05-29T09:52:51.570Z,7.6
2018-05-29T09:53:52.239Z,7.4
2018-05-29T09:54:52.928Z,6.9
2018-05-29T09:55:53.611Z,7.9
2018-05-29T09:56:54.305Z,7.5
2018-05-29T09:57:55.005Z,7.5
2018-05-29T09:58:55.710Z,8.7
2018-05-29T09:59:56.416Z,7.3
2018-05-29T10:00:57.109Z,11.5
2018-05-29T10:01:58.166Z,7.8
2018-05-29T10:02:58.851Z,11.1
2018-05-29T10:03:59.537Z,8.3
2018-05-29T10:05:00.223Z,9.1
2018-05-29T10:06:00.923Z,10.1
2018-05-29T10:07:01.823Z,10.8
2018-05-29T10:08:02.426Z,9.2
2018-05-29T10:09:03.122Z,9.3
2018-05-29T10:10:03.812Z,9.2
2018-05-29T10:11:04.505Z,10.6
2018-05-29T10:12:05.203Z,12.4
2018-05-29T10:13:05.905Z,11.9
2018-05-29T10:14:06.606Z,9.6
2018-05-29T10:15:07.316Z,9.0
2018-05-29T10:16:08.003Z,9.1
2018-05-29T10:17:08.757Z,11.6
2018-05-29T10:18:09.383Z,9.6
2018-05-29T10:19:10.374Z,10.1
2018-05-29T10:20:11.081Z,10.0
2018-05-29T10:21:11.771Z,9.7
2018-05-29T10:22:12.457Z,11.2
2018-05-29T10:23:13.150Z,15.0
2018-05-29T10:24:13.854Z,10.3
2018-05-29T10:25:14.544Z,9.6
2018-05-29T10:26:15.244Z,11.4
2018-05-29T10:27:15.921Z,10.1
2018-05-29T10:28:16.628Z,11.1
2018-05-29T10:29:17.330Z,11.7
2018-05-29T10:30:18.022Z,9.6
2018-05-29T10:31:18.717Z,15.8
2018-05-29T10:32:19.414Z,10.3
2018-05-29T10:33:20.100Z,11.4
2018-05-29T10:34:20.793Z,10.7
2018-05-29T10:35:21.543Z,11.2
2018-05-29T10:36:22.235Z,9.3
2018-05-29T10:37:22.924Z,10.1
2018-05-29T10:38:23.621Z,11.3
2018-05-29T10:39:24.309Z,14.8
2018-05-29T10:40:25.010Z,11.0
2018-05-29T10:41:25.713Z,14.3
2018-05-29T10:42:26.410Z,12.0
2018-05-29T10:43:27.095Z,10.0
2018-05-29T10:44:27.774Z,10.1
2018-05-29T10:45:28.732Z,12.8
2018-05-29T10:46:29.409Z,10.4
2018-05-29T10:47:30.139Z,11.1
2018-05-29T10:48:30.831Z,14.1
2018-05-29T10:49:31.524Z,10.1
2018-05-29T10:50:32.218Z,10.0
2018-05-29T10:51:32.917Z,11.9
2018-05-29T10:52:33.625Z,10.4
2018-05-29T10:53:34.561Z,9.7
2018-05-29T10:54:35.289Z,14.5
2018-05-29T10:55:35.976Z,10.0
2018-05-29T10:56:36.676Z,11.3
2018-05-29T10:57:37.661Z,9.4
2018-05-29T10:58:38.448Z,9.4
2018-05-29T10:59:39.594Z,9.6
2018-05-29T11:00:40.288Z,10.5
2018-05-29T11:01:41.267Z,9.6
2018-05-29T11:02:41.968Z,9.7
2018-05-29T11:03:42.912Z,9.2
2018-05-29T11:04:43.596Z,10.5
2018-05-29T11:05:44.290Z,11.8
2018-05-29T11:06:45.230Z,9.7
2018-05-29T11:07:45.923Z,10.6
2018-05-29T11:08:46.622Z,11.3
2018-05-29T11:09:47.320Z,9.9
2018-05-29T11:10:48.022Z,10.5
2018-05-29T11:11:48.714Z,9.9
2018-05-29T11:12:49.408Z,10.4
2018-05-29T11:13:50.179Z,11.5
2018-05-29T11:14:50.872Z,9.2
2018-05-29T11:15:51.561Z,9.7
2018-05-29T11:16:52.777Z,9.4
2018-05-29T11:17:53.981Z,9.4
2018-05-29T11:18:54.686Z,9.6
2018-05-29T11:19:55.469Z,10.4
2018-05-29T11:20:56.218Z,10.2
2018-05-29T11:21:56.905Z,10.9
2018-05-29T11:22:57.879Z,10.5
2018-05-29T11:23:58.832Z,12.5
2018-05-29T11:24:59.521Z,13.3
2018-05-29T11:26:00.272Z,14.1
2018-05-29T11:27:00.959Z,9.4
2018-05-29T11:28:01.663Z,10.2
2018-05-29T11:29:02.569Z,9.6
2018-05-29T11:30:03.392Z,9.2
2018-05-29T11:31:04.564Z,9.9
2018-05-29T11:32:05.245Z,9.7
2018-05-29T11:33:06.035Z,9.8
2018-05-29T11:34:07.038Z,10.2
2018-05-29T11:35:07.808Z,9.3
2018-05-29T11:36:08.572Z,10.2
2018-05-29T11:37:09.520Z,10.1
2018-05-29T11:38:10.209Z,8.6
2018-05-29T11:39:11.367Z,9.7
2018-05-29T11:40:12.469Z,9.4
2018-05-29T11:41:14.727Z,9.0
2018-05-29T11:42:16.241Z,8.7
2018-05-29T11:43:16.945Z,9.0
2018-05-29T11:44:18.347Z,8.8
2018-05-29T11:45:19.327Z,8.9
2018-05-29T11:46:20.288Z,9.5
2018-05-29T11:47:20.973Z,11.9
2018-05-29T11:48:21.673Z,8.0
2018-05-29T11:49:22.371Z,9.9
2018-05-29T11:50:23.069Z,9.4
2018-05-29T11:51:23.776Z,7.9
2018-05-29T11:52:24.471Z,8.4
2018-05-29T11:53:25.152Z,10.1
2018-05-29T11:54:25.855Z,13.7
2018-05-29T11:55:26.538Z,8.7
2018-05-29T11:56:27.631Z,10.2
2018-05-29T11:57:28.336Z,10.0
2018-05-29T11:58:29.972Z,10.0
2018-05-29T11:59:31.020Z,9.6
2018-05-29T12:00:32.109Z,9.9
2018-05-29T12:01:32.817Z,9.4
2018-05-29T12:02:33.572Z,9.3
2018-05-29T12:03:34.265Z,13.5
2018-05-29T12:04:34.965Z,8.3
2018-05-29T12:05:35.723Z,11.0
2018-05-29T12:06:36.427Z,11.3
2018-05-29T12:07:37.200Z,8.7
2018-05-29T12:08:37.829Z,8.8
2018-05-29T12:09:38.527Z,9.6
2018-05-29T12:10:39.311Z,8.9
2018-05-29T12:11:40.014Z,9.6
2018-05-29T12:12:40.723Z,9.8
2018-05-29T12:13:41.421Z,9.6
2018-05-29T12:14:42.380Z,11.3
2018-05-29T12:15:43.068Z,8.8
2018-05-29T12:16:43.776Z,9.1
2018-05-29T12:17:44.454Z,10.4
2018-05-29T12:18:45.245Z,11.1
2018-05-29T12:19:45.943Z,8.4
2018-05-29T12:20:46.645Z,8.1
2018-05-29T12:21:47.330Z,10.5
2018-05-29T12:22:48.277Z,9.7
2018-05-29T12:23:48.967Z,8.7
2018-05-29T12:24:49.670Z,8.9
2018-05-29T12:25:50.395Z,8.3
2018-05-29T12:26:51.098Z,8.6
2018-05-29T12:27:51.793Z,9.0
2018-05-29T12:28:52.500Z,8.8
2018-05-29T12:29:53.191Z,8.6
2018-05-29T12:30:54.289Z,8.3
2018-05-29T12:31:54.992Z,8.8
2018-05-29T12:32:55.689Z,8.6
2018-05-29T12:33:56.393Z,9.0
2018-05-29T12:34:57.099Z,10.7
2018-05-29T12:35:58.098Z,8.8
2018-05-29T12:36:58.787Z,8.5
2018-05-29T12:37:59.477Z,8.4
2018-05-29T12:39:00.169Z,8.5
2018-05-29T12:40:00.873Z,12.5
2018-05-29T12:41:01.576Z,8.7
2018-05-29T12:42:02.270Z,8.1
2018-05-29T12:43:02.969Z,8.2
2018-05-29T12:44:03.667Z,10.1
2018-05-29T12:45:04.357Z,8.7
2018-05-29T12:46:05.522Z,8.5
2018-05-29T12:47:06.207Z,15.3
2018-05-29T12:48:06.904Z,10.6
2018-05-29T12:49:07.603Z,9.0
2018-05-29T12:50:08.305Z,9.4
2018-05-29T12:51:09.053Z,9.1
2018-05-29T12:52:09.757Z,8.4
2018-05-29T12:53:10.447Z,8.8
2018-05-29T12:54:11.132Z,9.9
2018-05-29T12:55:11.821Z,8.2
2018-05-29T12:56:12.521Z,9.6
2018-05-29T12:57:13.220Z,13.4
2018-05-29T12:58:13.930Z,9.8
2018-05-29T12:59:14.641Z,7.4
2018-05-29T13:00:15.316Z,9.8
2018-05-29T13:01:16.040Z,8.9
2018-05-29T13:02:16.741Z,14.9
2018-05-29T13:03:17.430Z,10.9
2018-05-29T13:04:18.135Z,9.4
2018-05-29T13:05:19.178Z,10.0
2018-05-29T13:06:19.921Z,8.9
2018-05-29T13:07:20.621Z,8.7
2018-05-29T13:08:21.566Z,9.5
2018-05-29T13:09:22.515Z,9.3
2018-05-29T13:10:23.229Z,12.3
2018-05-29T13:11:23.929Z,9.1
2018-05-29T13:12:24.626Z,9.3
2018-05-29T13:13:25.331Z,9.6
2018-05-29T13:14:26.285Z,8.9
2018-05-29T13:15:26.997Z,8.8
2018-05-29T13:16:27.671Z,14.1
2018-05-29T13:17:28.372Z,9.6
2018-05-29T13:18:29.322Z,9.8
2018-05-29T13:19:30.112Z,8.8
2018-05-29T13:20:30.808Z,9.2
2018-05-29T13:21:31.501Z,9.5
2018-05-29T13:22:32.209Z,10.1
2018-05-29T13:23:32.880Z,9.5
2018-05-29T13:24:33.573Z,10.0
2018-05-29T13:25:34.263Z,10.2
2018-05-29T13:26:34.996Z,9.0
2018-05-29T13:27:35.711Z,10.3
2018-05-29T13:28:36.398Z,9.7
2018-05-29T13:29:37.463Z,11.6
2018-05-29T13:30:38.160Z,10.0
2018-05-29T13:31:38.867Z,9.6
2018-05-29T13:32:39.643Z,9.6
2018-05-29T13:33:40.280Z,9.2
2018-05-29T13:34:40.988Z,9.5
2018-05-29T13:35:41.688Z,9.1